sensor_id;sensor_type;location;lat;lon;timestamp;P1;durP1;ratioP1;P2;durP2;ratioP2
21837;SDS011;11081;45.946;6.140;2023-02-15T00:00:12;24.37;;;12.97;;
21837;SDS011;11081;45.946;6.140;2023-02-15T00:02:40;28.03;;;14.23;;
21837;SDS011;11081;45.946;6.140;2023-02-15T00:05:10;30.67;;;15.03;;
21837;SDS011;11081;45.946;6.140;2023-02-15T00:07:38;30.33;;;14.33;;
21837;SDS011;11081;45.946;6.140;2023-02-15T00:10:06;29.13;;;13.87;;
21837;SDS011;11081;45.946;6.140;2023-02-15T00:12:35;28.10;;;13.80;;
21837;SDS011;11081;45.946;6.140;2023-02-15T00:15:03;25.10;;;13.97;;
21837;SDS011;11081;45.946;6.140;2023-02-15T00:17:31;28.13;;;14.93;;
21837;SDS011;11081;45.946;6.140;2023-02-15T00:19:59;33.43;;;16.60;;
21837;SDS011;11081;45.946;6.140;2023-02-15T00:22:29;32.20;;;15.97;;
21837;SDS011;11081;45.946;6.140;2023-02-15T00:24:57;30.70;;;16.17;;
21837;SDS011;11081;45.946;6.140;2023-02-15T00:27:25;28.13;;;15.53;;
21837;SDS011;11081;45.946;6.140;2023-02-15T00:29:54;29.20;;;15.40;;
21837;SDS011;11081;45.946;6.140;2023-02-15T00:32:22;28.67;;;15.57;;
21837;SDS011;11081;45.946;6.140;2023-02-15T00:34:50;33.27;;;15.20;;
21837;SDS011;11081;45.946;6.140;2023-02-15T00:37:18;29.07;;;14.93;;
21837;SDS011;11081;45.946;6.140;2023-02-15T00:39:47;29.87;;;14.67;;
21837;SDS011;11081;45.946;6.140;2023-02-15T00:42:16;30.50;;;14.77;;
21837;SDS011;11081;45.946;6.140;2023-02-15T00:44:44;24.67;;;12.27;;
21837;SDS011;11081;45.946;6.140;2023-02-15T00:47:12;23.17;;;11.10;;
21837;SDS011;11081;45.946;6.140;2023-02-15T00:49:40;22.23;;;11.97;;
21837;SDS011;11081;45.946;6.140;2023-02-15T00:52:08;21.20;;;10.33;;
21837;SDS011;11081;45.946;6.140;2023-02-15T00:54:36;19.10;;;9.80;;
21837;SDS011;11081;45.946;6.140;2023-02-15T00:57:06;21.17;;;9.57;;
21837;SDS011;11081;45.946;6.140;2023-02-15T00:59:34;19.33;;;10.70;;
21837;SDS011;11081;45.946;6.140;2023-02-15T01:02:02;18.37;;;9.97;;
21837;SDS011;11081;45.946;6.140;2023-02-15T01:04:30;26.33;;;12.60;;
21837;SDS011;11081;45.946;6.140;2023-02-15T01:06:58;22.77;;;11.07;;
21837;SDS011;11081;45.946;6.140;2023-02-15T01:09:28;20.53;;;10.17;;
21837;SDS011;11081;45.946;6.140;2023-02-15T01:11:56;17.33;;;9.40;;
21837;SDS011;11081;45.946;6.140;2023-02-15T01:14:26;18.80;;;9.60;;
21837;SDS011;11081;45.946;6.140;2023-02-15T01:16:55;18.33;;;9.73;;
21837;SDS011;11081;45.946;6.140;2023-02-15T01:19:22;17.20;;;9.20;;
21837;SDS011;11081;45.946;6.140;2023-02-15T01:21:50;23.17;;;10.37;;
21837;SDS011;11081;45.946;6.140;2023-02-15T01:24:18;19.37;;;9.47;;
21837;SDS011;11081;45.946;6.140;2023-02-15T01:26:46;22.53;;;11.83;;
21837;SDS011;11081;45.946;6.140;2023-02-15T01:29:15;23.73;;;10.87;;
21837;SDS011;11081;45.946;6.140;2023-02-15T01:31:44;18.07;;;10.30;;
21837;SDS011;11081;45.946;6.140;2023-02-15T01:34:13;18.63;;;10.60;;
21837;SDS011;11081;45.946;6.140;2023-02-15T01:36:41;18.53;;;10.70;;
21837;SDS011;11081;45.946;6.140;2023-02-15T01:39:09;17.43;;;9.30;;
21837;SDS011;11081;45.946;6.140;2023-02-15T01:41:37;18.40;;;9.97;;
21837;SDS011;11081;45.946;6.140;2023-02-15T01:47:04;19.20;;;9.60;;
21837;SDS011;11081;45.946;6.140;2023-02-15T01:49:32;17.70;;;9.73;;
21837;SDS011;11081;45.946;6.140;2023-02-15T01:52:00;18.83;;;9.93;;
21837;SDS011;11081;45.946;6.140;2023-02-15T01:54:29;17.27;;;8.83;;
21837;SDS011;11081;45.946;6.140;2023-02-15T01:57:04;18.23;;;9.53;;
21837;SDS011;11081;45.946;6.140;2023-02-15T01:59:34;19.30;;;10.27;;
21837;SDS011;11081;45.946;6.140;2023-02-15T02:02:06;16.07;;;9.10;;
21837;SDS011;11081;45.946;6.140;2023-02-15T02:04:38;16.23;;;8.93;;
21837;SDS011;11081;45.946;6.140;2023-02-15T02:07:11;18.87;;;9.40;;
21837;SDS011;11081;45.946;6.140;2023-02-15T02:09:42;22.07;;;10.50;;
21837;SDS011;11081;45.946;6.140;2023-02-15T02:12:11;20.23;;;10.43;;
21837;SDS011;11081;45.946;6.140;2023-02-15T02:14:40;20.53;;;10.43;;
21837;SDS011;11081;45.946;6.140;2023-02-15T02:17:11;19.50;;;10.17;;
21837;SDS011;11081;45.946;6.140;2023-02-15T02:19:53;21.03;;;10.13;;
21837;SDS011;11081;45.946;6.140;2023-02-15T02:23:07;23.60;;;11.10;;
21837;SDS011;11081;45.946;6.140;2023-02-15T02:29:02;20.73;;;11.97;;
21837;SDS011;11081;45.946;6.140;2023-02-15T02:32:06;25.57;;;11.33;;
21837;SDS011;11081;45.946;6.140;2023-02-15T02:35:09;23.33;;;11.30;;
21837;SDS011;11081;45.946;6.140;2023-02-15T02:37:45;21.40;;;10.30;;
21837;SDS011;11081;45.946;6.140;2023-02-15T02:40:24;19.57;;;9.80;;
21837;SDS011;11081;45.946;6.140;2023-02-15T02:42:59;21.43;;;9.83;;
21837;SDS011;11081;45.946;6.140;2023-02-15T02:45:32;19.50;;;9.80;;
21837;SDS011;11081;45.946;6.140;2023-02-15T02:48:09;18.50;;;10.13;;
21837;SDS011;11081;45.946;6.140;2023-02-15T02:50:42;21.03;;;10.13;;
21837;SDS011;11081;45.946;6.140;2023-02-15T02:53:10;17.97;;;9.23;;
21837;SDS011;11081;45.946;6.140;2023-02-15T02:55:39;16.37;;;9.33;;
21837;SDS011;11081;45.946;6.140;2023-02-15T02:58:14;20.30;;;8.30;;
21837;SDS011;11081;45.946;6.140;2023-02-15T03:00:46;15.53;;;8.00;;
21837;SDS011;11081;45.946;6.140;2023-02-15T03:03:20;13.00;;;7.53;;
21837;SDS011;11081;45.946;6.140;2023-02-15T03:05:52;12.37;;;5.80;;
21837;SDS011;11081;45.946;6.140;2023-02-15T03:08:23;10.77;;;5.73;;
21837;SDS011;11081;45.946;6.140;2023-02-15T03:10:56;19.43;;;9.20;;
21837;SDS011;11081;45.946;6.140;2023-02-15T03:13:27;15.93;;;9.10;;
21837;SDS011;11081;45.946;6.140;2023-02-15T03:15:56;17.80;;;9.60;;
21837;SDS011;11081;45.946;6.140;2023-02-15T03:18:44;16.37;;;8.10;;
21837;SDS011;11081;45.946;6.140;2023-02-15T03:21:21;15.23;;;7.53;;
21837;SDS011;11081;45.946;6.140;2023-02-15T03:23:57;13.63;;;6.93;;
21837;SDS011;11081;45.946;6.140;2023-02-15T03:26:29;11.60;;;6.10;;
21837;SDS011;11081;45.946;6.140;2023-02-15T03:28:59;11.07;;;6.37;;
21837;SDS011;11081;45.946;6.140;2023-02-15T03:31:31;10.43;;;5.63;;
21837;SDS011;11081;45.946;6.140;2023-02-15T03:34:04;11.37;;;5.43;;
21837;SDS011;11081;45.946;6.140;2023-02-15T03:36:38;9.37;;;5.50;;
21837;SDS011;11081;45.946;6.140;2023-02-15T03:39:15;11.43;;;5.53;;
21837;SDS011;11081;45.946;6.140;2023-02-15T03:41:49;12.43;;;5.93;;
21837;SDS011;11081;45.946;6.140;2023-02-15T03:44:25;9.30;;;4.90;;
21837;SDS011;11081;45.946;6.140;2023-02-15T03:46:58;9.10;;;4.67;;
21837;SDS011;11081;45.946;6.140;2023-02-15T03:49:34;6.83;;;4.13;;
21837;SDS011;11081;45.946;6.140;2023-02-15T03:52:11;9.57;;;4.73;;
21837;SDS011;11081;45.946;6.140;2023-02-15T03:54:40;7.33;;;4.37;;
21837;SDS011;11081;45.946;6.140;2023-02-15T03:57:14;13.37;;;6.20;;
21837;SDS011;11081;45.946;6.140;2023-02-15T04:00:04;9.90;;;5.43;;
21837;SDS011;11081;45.946;6.140;2023-02-15T04:02:55;12.83;;;7.10;;
21837;SDS011;11081;45.946;6.140;2023-02-15T04:05:36;13.77;;;7.73;;
21837;SDS011;11081;45.946;6.140;2023-02-15T04:08:06;15.33;;;8.07;;
21837;SDS011;11081;45.946;6.140;2023-02-15T04:10:34;18.50;;;7.23;;
21837;SDS011;11081;45.946;6.140;2023-02-15T04:13:20;13.67;;;6.93;;
21837;SDS011;11081;45.946;6.140;2023-02-15T04:15:49;11.60;;;6.37;;
21837;SDS011;11081;45.946;6.140;2023-02-15T04:18:36;12.43;;;6.33;;
21837;SDS011;11081;45.946;6.140;2023-02-15T04:21:23;13.00;;;6.27;;
21837;SDS011;11081;45.946;6.140;2023-02-15T04:24:12;12.23;;;7.17;;
21837;SDS011;11081;45.946;6.140;2023-02-15T04:26:59;10.43;;;6.03;;
21837;SDS011;11081;45.946;6.140;2023-02-15T04:29:28;9.97;;;5.77;;
21837;SDS011;11081;45.946;6.140;2023-02-15T04:31:58;11.40;;;5.93;;
21837;SDS011;11081;45.946;6.140;2023-02-15T04:34:27;9.53;;;5.87;;
21837;SDS011;11081;45.946;6.140;2023-02-15T04:36:55;11.90;;;6.70;;
21837;SDS011;11081;45.946;6.140;2023-02-15T04:39:25;16.17;;;7.57;;
21837;SDS011;11081;45.946;6.140;2023-02-15T04:41:53;14.27;;;7.33;;
21837;SDS011;11081;45.946;6.140;2023-02-15T04:44:21;16.13;;;7.70;;
21837;SDS011;11081;45.946;6.140;2023-02-15T04:46:49;15.33;;;7.23;;
21837;SDS011;11081;45.946;6.140;2023-02-15T04:49:17;13.57;;;6.80;;
21837;SDS011;11081;45.946;6.140;2023-02-15T04:51:45;16.33;;;7.17;;
21837;SDS011;11081;45.946;6.140;2023-02-15T04:54:13;12.63;;;5.90;;
21837;SDS011;11081;45.946;6.140;2023-02-15T04:56:42;10.60;;;5.60;;
21837;SDS011;11081;45.946;6.140;2023-02-15T04:59:11;8.80;;;5.43;;
21837;SDS011;11081;45.946;6.140;2023-02-15T05:01:39;8.73;;;4.87;;
21837;SDS011;11081;45.946;6.140;2023-02-15T05:04:07;11.03;;;5.80;;
21837;SDS011;11081;45.946;6.140;2023-02-15T05:06:36;10.97;;;5.23;;
21837;SDS011;11081;45.946;6.140;2023-02-15T05:09:04;9.43;;;5.17;;
21837;SDS011;11081;45.946;6.140;2023-02-15T05:11:32;12.87;;;6.57;;
21837;SDS011;11081;45.946;6.140;2023-02-15T05:14:01;16.40;;;7.10;;
21837;SDS011;11081;45.946;6.140;2023-02-15T05:16:29;12.67;;;6.53;;
21837;SDS011;11081;45.946;6.140;2023-02-15T05:18:57;10.60;;;5.87;;
21837;SDS011;11081;45.946;6.140;2023-02-15T05:21:25;12.53;;;6.23;;
21837;SDS011;11081;45.946;6.140;2023-02-15T05:23:53;11.77;;;5.60;;
21837;SDS011;11081;45.946;6.140;2023-02-15T05:26:22;11.03;;;5.57;;
21837;SDS011;11081;45.946;6.140;2023-02-15T05:29:10;14.90;;;5.07;;
21837;SDS011;11081;45.946;6.140;2023-02-15T05:31:38;14.37;;;4.90;;
21837;SDS011;11081;45.946;6.140;2023-02-15T05:34:07;15.90;;;6.27;;
21837;SDS011;11081;45.946;6.140;2023-02-15T05:36:35;11.97;;;5.60;;
21837;SDS011;11081;45.946;6.140;2023-02-15T05:39:03;11.03;;;6.07;;
21837;SDS011;11081;45.946;6.140;2023-02-15T05:41:32;10.10;;;5.43;;
21837;SDS011;11081;45.946;6.140;2023-02-15T05:44:00;13.50;;;6.40;;
21837;SDS011;11081;45.946;6.140;2023-02-15T05:46:29;13.00;;;6.73;;
21837;SDS011;11081;45.946;6.140;2023-02-15T05:48:58;12.10;;;6.77;;
21837;SDS011;11081;45.946;6.140;2023-02-15T05:51:26;13.20;;;6.90;;
21837;SDS011;11081;45.946;6.140;2023-02-15T05:53:54;11.07;;;6.00;;
21837;SDS011;11081;45.946;6.140;2023-02-15T05:56:22;11.23;;;5.93;;
21837;SDS011;11081;45.946;6.140;2023-02-15T05:58:52;10.40;;;5.97;;
21837;SDS011;11081;45.946;6.140;2023-02-15T06:01:21;11.87;;;5.47;;
21837;SDS011;11081;45.946;6.140;2023-02-15T06:03:50;9.93;;;5.63;;
21837;SDS011;11081;45.946;6.140;2023-02-15T06:06:19;10.70;;;5.17;;
21837;SDS011;11081;45.946;6.140;2023-02-15T06:08:47;11.20;;;5.00;;
21837;SDS011;11081;45.946;6.140;2023-02-15T06:11:15;8.67;;;4.50;;
21837;SDS011;11081;45.946;6.140;2023-02-15T06:13:43;9.30;;;4.77;;
21837;SDS011;11081;45.946;6.140;2023-02-15T06:16:11;10.03;;;4.70;;
21837;SDS011;11081;45.946;6.140;2023-02-15T06:18:39;6.97;;;4.33;;
21837;SDS011;11081;45.946;6.140;2023-02-15T06:21:08;8.33;;;5.00;;
21837;SDS011;11081;45.946;6.140;2023-02-15T06:23:36;8.30;;;5.23;;
21837;SDS011;11081;45.946;6.140;2023-02-15T06:26:05;9.73;;;4.87;;
21837;SDS011;11081;45.946;6.140;2023-02-15T06:28:33;9.03;;;4.77;;
21837;SDS011;11081;45.946;6.140;2023-02-15T06:31:00;6.73;;;3.80;;
21837;SDS011;11081;45.946;6.140;2023-02-15T06:33:29;6.57;;;3.77;;
21837;SDS011;11081;45.946;6.140;2023-02-15T06:36:00;6.53;;;3.47;;
21837;SDS011;11081;45.946;6.140;2023-02-15T06:38:30;7.23;;;3.60;;
21837;SDS011;11081;45.946;6.140;2023-02-15T06:40:58;7.53;;;3.97;;
21837;SDS011;11081;45.946;6.140;2023-02-15T06:43:26;7.60;;;3.97;;
21837;SDS011;11081;45.946;6.140;2023-02-15T06:45:54;7.10;;;4.00;;
21837;SDS011;11081;45.946;6.140;2023-02-15T06:48:22;8.67;;;4.17;;
21837;SDS011;11081;45.946;6.140;2023-02-15T06:50:50;9.40;;;4.17;;
21837;SDS011;11081;45.946;6.140;2023-02-15T06:53:18;7.87;;;4.00;;
21837;SDS011;11081;45.946;6.140;2023-02-15T06:55:47;7.10;;;3.90;;
21837;SDS011;11081;45.946;6.140;2023-02-15T06:58:15;8.07;;;4.63;;
21837;SDS011;11081;45.946;6.140;2023-02-15T07:00:43;7.40;;;4.33;;
21837;SDS011;11081;45.946;6.140;2023-02-15T07:03:13;6.20;;;4.17;;
21837;SDS011;11081;45.946;6.140;2023-02-15T07:05:41;10.73;;;4.43;;
21837;SDS011;11081;45.946;6.140;2023-02-15T07:08:10;7.47;;;4.67;;
21837;SDS011;11081;45.946;6.140;2023-02-15T07:10:38;9.43;;;3.93;;
21837;SDS011;11081;45.946;6.140;2023-02-15T07:13:07;6.77;;;4.13;;
21837;SDS011;11081;45.946;6.140;2023-02-15T07:15:34;9.83;;;4.50;;
21837;SDS011;11081;45.946;6.140;2023-02-15T07:18:02;14.47;;;5.50;;
21837;SDS011;11081;45.946;6.140;2023-02-15T07:20:31;10.50;;;5.73;;
21837;SDS011;11081;45.946;6.140;2023-02-15T07:23:03;11.70;;;6.00;;
21837;SDS011;11081;45.946;6.140;2023-02-15T07:25:31;11.43;;;6.40;;
21837;SDS011;11081;45.946;6.140;2023-02-15T07:28:00;10.73;;;5.80;;
21837;SDS011;11081;45.946;6.140;2023-02-15T07:30:31;12.70;;;6.90;;
21837;SDS011;11081;45.946;6.140;2023-02-15T07:32:59;16.60;;;6.57;;
21837;SDS011;11081;45.946;6.140;2023-02-15T07:35:47;10.67;;;6.23;;
21837;SDS011;11081;45.946;6.140;2023-02-15T07:38:16;12.63;;;6.80;;
21837;SDS011;11081;45.946;6.140;2023-02-15T07:40:44;9.47;;;5.60;;
21837;SDS011;11081;45.946;6.140;2023-02-15T07:43:13;11.40;;;5.93;;
21837;SDS011;11081;45.946;6.140;2023-02-15T07:45:43;10.00;;;5.00;;
21837;SDS011;11081;45.946;6.140;2023-02-15T07:48:11;9.33;;;4.97;;
21837;SDS011;11081;45.946;6.140;2023-02-15T07:50:39;7.80;;;4.43;;
21837;SDS011;11081;45.946;6.140;2023-02-15T07:53:07;11.53;;;4.77;;
21837;SDS011;11081;45.946;6.140;2023-02-15T07:55:35;11.90;;;5.23;;
21837;SDS011;11081;45.946;6.140;2023-02-15T07:58:03;10.63;;;6.00;;
21837;SDS011;11081;45.946;6.140;2023-02-15T08:00:31;11.43;;;5.73;;
21837;SDS011;11081;45.946;6.140;2023-02-15T08:03:21;10.93;;;5.47;;
21837;SDS011;11081;45.946;6.140;2023-02-15T08:05:55;12.07;;;5.40;;
21837;SDS011;11081;45.946;6.140;2023-02-15T08:08:25;11.27;;;6.10;;
21837;SDS011;11081;45.946;6.140;2023-02-15T08:10:59;17.53;;;6.60;;
21837;SDS011;11081;45.946;6.140;2023-02-15T08:13:46;15.60;;;5.87;;
21837;SDS011;11081;45.946;6.140;2023-02-15T08:16:22;16.17;;;6.10;;
21837;SDS011;11081;45.946;6.140;2023-02-15T08:18:53;11.43;;;5.97;;
21837;SDS011;11081;45.946;6.140;2023-02-15T08:21:21;14.00;;;6.10;;
21837;SDS011;11081;45.946;6.140;2023-02-15T08:23:50;13.83;;;6.50;;
21837;SDS011;11081;45.946;6.140;2023-02-15T08:26:18;15.67;;;6.90;;
21837;SDS011;11081;45.946;6.140;2023-02-15T08:28:46;14.10;;;6.90;;
21837;SDS011;11081;45.946;6.140;2023-02-15T08:31:15;20.03;;;7.07;;
21837;SDS011;11081;45.946;6.140;2023-02-15T08:33:44;13.73;;;6.30;;
21837;SDS011;11081;45.946;6.140;2023-02-15T08:36:15;16.57;;;6.73;;
21837;SDS011;11081;45.946;6.140;2023-02-15T08:38:45;15.70;;;7.07;;
21837;SDS011;11081;45.946;6.140;2023-02-15T08:41:14;14.30;;;6.53;;
21837;SDS011;11081;45.946;6.140;2023-02-15T08:43:43;17.67;;;7.30;;
21837;SDS011;11081;45.946;6.140;2023-02-15T08:46:11;17.67;;;8.57;;
21837;SDS011;11081;45.946;6.140;2023-02-15T08:48:40;23.67;;;9.07;;
21837;SDS011;11081;45.946;6.140;2023-02-15T08:51:09;19.93;;;8.60;;
21837;SDS011;11081;45.946;6.140;2023-02-15T08:53:41;14.93;;;7.57;;
21837;SDS011;11081;45.946;6.140;2023-02-15T08:56:10;18.27;;;8.37;;
21837;SDS011;11081;45.946;6.140;2023-02-15T08:58:38;17.70;;;7.20;;
21837;SDS011;11081;45.946;6.140;2023-02-15T09:01:09;15.27;;;7.33;;
21837;SDS011;11081;45.946;6.140;2023-02-15T09:03:38;20.03;;;7.07;;
21837;SDS011;11081;45.946;6.140;2023-02-15T09:06:07;15.40;;;7.67;;
21837;SDS011;11081;45.946;6.140;2023-02-15T09:08:35;18.13;;;7.43;;
21837;SDS011;11081;45.946;6.140;2023-02-15T09:11:09;21.23;;;7.57;;
21837;SDS011;11081;45.946;6.140;2023-02-15T09:13:38;22.07;;;8.23;;
21837;SDS011;11081;45.946;6.140;2023-02-15T09:16:08;23.10;;;8.53;;
21837;SDS011;11081;45.946;6.140;2023-02-15T09:18:37;21.97;;;9.23;;
21837;SDS011;11081;45.946;6.140;2023-02-15T09:21:07;27.03;;;8.33;;
21837;SDS011;11081;45.946;6.140;2023-02-15T09:23:36;23.50;;;10.37;;
21837;SDS011;11081;45.946;6.140;2023-02-15T09:26:05;21.47;;;10.00;;
21837;SDS011;11081;45.946;6.140;2023-02-15T09:28:36;21.60;;;10.60;;
21837;SDS011;11081;45.946;6.140;2023-02-15T09:33:36;21.37;;;11.10;;
21837;SDS011;11081;45.946;6.140;2023-02-15T09:36:06;27.53;;;11.70;;
21837;SDS011;11081;45.946;6.140;2023-02-15T09:38:42;22.60;;;11.53;;
21837;SDS011;11081;45.946;6.140;2023-02-15T09:41:19;22.10;;;10.63;;
21837;SDS011;11081;45.946;6.140;2023-02-15T09:44:11;25.47;;;11.03;;
21837;SDS011;11081;45.946;6.140;2023-02-15T09:46:50;29.50;;;10.77;;
21837;SDS011;11081;45.946;6.140;2023-02-15T09:49:28;26.37;;;12.30;;
21837;SDS011;11081;45.946;6.140;2023-02-15T09:52:11;27.57;;;11.27;;
21837;SDS011;11081;45.946;6.140;2023-02-15T09:55:10;20.10;;;11.53;;
21837;SDS011;11081;45.946;6.140;2023-02-15T09:57:49;21.97;;;11.33;;
21837;SDS011;11081;45.946;6.140;2023-02-15T10:00:24;30.37;;;12.23;;
21837;SDS011;11081;45.946;6.140;2023-02-15T10:03:10;30.57;;;11.63;;
21837;SDS011;11081;45.946;6.140;2023-02-15T10:05:52;26.13;;;13.37;;
21837;SDS011;11081;45.946;6.140;2023-02-15T10:08:40;26.93;;;13.20;;
21837;SDS011;11081;45.946;6.140;2023-02-15T10:11:20;24.93;;;13.37;;
21837;SDS011;11081;45.946;6.140;2023-02-15T10:14:14;21.70;;;12.43;;
21837;SDS011;11081;45.946;6.140;2023-02-15T10:17:01;24.47;;;12.17;;
21837;SDS011;11081;45.946;6.140;2023-02-15T10:19:38;29.83;;;13.37;;
21837;SDS011;11081;45.946;6.140;2023-02-15T10:22:19;31.87;;;16.10;;
21837;SDS011;11081;45.946;6.140;2023-02-15T10:24:59;30.37;;;13.97;;
21837;SDS011;11081;45.946;6.140;2023-02-15T10:27:40;32.83;;;15.00;;
21837;SDS011;11081;45.946;6.140;2023-02-15T10:30:13;27.80;;;13.83;;
21837;SDS011;11081;45.946;6.140;2023-02-15T10:32:46;30.33;;;13.77;;
21837;SDS011;11081;45.946;6.140;2023-02-15T10:35:25;31.63;;;13.93;;
21837;SDS011;11081;45.946;6.140;2023-02-15T10:38:07;24.15;;;12.57;;
21837;SDS011;11081;45.946;6.140;2023-02-15T10:40:51;25.30;;;12.23;;
21837;SDS011;11081;45.946;6.140;2023-02-15T10:43:39;26.43;;;12.70;;
21837;SDS011;11081;45.946;6.140;2023-02-15T10:46:17;26.47;;;12.77;;
21837;SDS011;11081;45.946;6.140;2023-02-15T10:49:13;26.70;;;11.67;;
21837;SDS011;11081;45.946;6.140;2023-02-15T10:52:01;25.50;;;12.63;;
21837;SDS011;11081;45.946;6.140;2023-02-15T10:54:41;28.80;;;12.77;;
21837;SDS011;11081;45.946;6.140;2023-02-15T10:57:15;26.80;;;13.03;;
21837;SDS011;11081;45.946;6.140;2023-02-15T10:59:58;23.57;;;12.57;;
21837;SDS011;11081;45.946;6.140;2023-02-15T11:02:37;23.20;;;12.50;;
21837;SDS011;11081;45.946;6.140;2023-02-15T11:05:17;32.70;;;12.77;;
21837;SDS011;11081;45.946;6.140;2023-02-15T11:07:54;25.50;;;12.20;;
21837;SDS011;11081;45.946;6.140;2023-02-15T11:10:27;23.60;;;11.67;;
21837;SDS011;11081;45.946;6.140;2023-02-15T11:12:59;26.95;;;11.18;;
21837;SDS011;11081;45.946;6.140;2023-02-15T11:15:33;25.45;;;11.95;;
21837;SDS011;11081;45.946;6.140;2023-02-15T11:18:05;23.30;;;11.13;;
21837;SDS011;11081;45.946;6.140;2023-02-15T11:20:41;24.85;;;10.60;;
21837;SDS011;11081;45.946;6.140;2023-02-15T11:23:21;22.90;;;10.65;;
21837;SDS011;11081;45.946;6.140;2023-02-15T11:25:54;22.80;;;11.10;;
21837;SDS011;11081;45.946;6.140;2023-02-15T11:28:25;20.58;;;10.35;;
21837;SDS011;11081;45.946;6.140;2023-02-15T11:31:00;21.50;;;10.77;;
21837;SDS011;11081;45.946;6.140;2023-02-15T11:33:39;24.80;;;11.90;;
21837;SDS011;11081;45.946;6.140;2023-02-15T11:36:15;25.42;;;12.60;;
21837;SDS011;11081;45.946;6.140;2023-02-15T11:38:46;25.33;;;13.00;;
21837;SDS011;11081;45.946;6.140;2023-02-15T11:41:17;26.63;;;12.45;;
21837;SDS011;11081;45.946;6.140;2023-02-15T11:43:50;30.98;;;12.85;;
21837;SDS011;11081;45.946;6.140;2023-02-15T11:46:25;22.45;;;12.30;;
21837;SDS011;11081;45.946;6.140;2023-02-15T11:48:53;30.67;;;12.88;;
21837;SDS011;11081;45.946;6.140;2023-02-15T11:51:22;23.90;;;12.10;;
21837;SDS011;11081;45.946;6.140;2023-02-15T11:53:50;30.05;;;12.52;;
21837;SDS011;11081;45.946;6.140;2023-02-15T11:56:20;25.13;;;11.38;;
21837;SDS011;11081;45.946;6.140;2023-02-15T11:58:51;22.85;;;11.38;;
21837;SDS011;11081;45.946;6.140;2023-02-15T12:01:26;26.35;;;12.40;;
21837;SDS011;11081;45.946;6.140;2023-02-15T12:03:59;22.20;;;10.75;;
21837;SDS011;11081;45.946;6.140;2023-02-15T12:06:34;24.15;;;10.32;;
21837;SDS011;11081;45.946;6.140;2023-02-15T12:09:06;19.35;;;9.93;;
21837;SDS011;11081;45.946;6.140;2023-02-15T12:11:48;22.35;;;11.30;;
21837;SDS011;11081;45.946;6.140;2023-02-15T12:14:16;19.25;;;10.13;;
21837;SDS011;11081;45.946;6.140;2023-02-15T12:16:45;21.15;;;9.10;;
21837;SDS011;11081;45.946;6.140;2023-02-15T12:19:27;18.67;;;9.10;;
21837;SDS011;11081;45.946;6.140;2023-02-15T12:21:59;23.25;;;10.05;;
21837;SDS011;11081;45.946;6.140;2023-02-15T12:24:30;21.45;;;10.07;;
21837;SDS011;11081;45.946;6.140;2023-02-15T12:27:02;21.77;;;9.23;;
21837;SDS011;11081;45.946;6.140;2023-02-15T12:29:34;18.48;;;8.45;;
21837;SDS011;11081;45.946;6.140;2023-02-15T12:32:08;16.88;;;8.40;;
21837;SDS011;11081;45.946;6.140;2023-02-15T12:34:39;18.00;;;8.57;;
21837;SDS011;11081;45.946;6.140;2023-02-15T12:37:14;20.42;;;8.57;;
21837;SDS011;11081;45.946;6.140;2023-02-15T12:39:52;24.33;;;8.57;;
21837;SDS011;11081;45.946;6.140;2023-02-15T12:42:21;21.77;;;8.52;;
21837;SDS011;11081;45.946;6.140;2023-02-15T12:44:55;21.30;;;9.45;;
21837;SDS011;11081;45.946;6.140;2023-02-15T12:47:25;21.92;;;10.23;;
21837;SDS011;11081;45.946;6.140;2023-02-15T12:53:07;18.98;;;8.38;;
21837;SDS011;11081;45.946;6.140;2023-02-15T12:55:44;15.05;;;8.27;;
21837;SDS011;11081;45.946;6.140;2023-02-15T12:58:19;19.92;;;9.25;;
21837;SDS011;11081;45.946;6.140;2023-02-15T13:00:48;17.00;;;7.85;;
21837;SDS011;11081;45.946;6.140;2023-02-15T13:03:30;18.67;;;7.97;;
21837;SDS011;11081;45.946;6.140;2023-02-15T13:05:59;19.15;;;7.43;;
21837;SDS011;11081;45.946;6.140;2023-02-15T13:08:33;16.02;;;7.57;;
21837;SDS011;11081;45.946;6.140;2023-02-15T13:11:03;19.02;;;8.30;;
21837;SDS011;11081;45.946;6.140;2023-02-15T13:13:37;16.40;;;8.57;;
21837;SDS011;11081;45.946;6.140;2023-02-15T13:16:19;21.92;;;10.20;;
21837;SDS011;11081;45.946;6.140;2023-02-15T13:18:55;17.15;;;8.98;;
21837;SDS011;11081;45.946;6.140;2023-02-15T13:21:25;17.17;;;8.25;;
21837;SDS011;11081;45.946;6.140;2023-02-15T13:24:00;16.23;;;8.68;;
21837;SDS011;11081;45.946;6.140;2023-02-15T13:26:32;22.55;;;9.95;;
21837;SDS011;11081;45.946;6.140;2023-02-15T13:29:05;21.52;;;9.30;;
21837;SDS011;11081;45.946;6.140;2023-02-15T13:31:36;22.95;;;10.38;;
21837;SDS011;11081;45.946;6.140;2023-02-15T13:34:08;19.58;;;9.45;;
21837;SDS011;11081;45.946;6.140;2023-02-15T13:36:41;19.20;;;9.77;;
21837;SDS011;11081;45.946;6.140;2023-02-15T13:39:24;20.25;;;9.48;;
21837;SDS011;11081;45.946;6.140;2023-02-15T13:42:00;20.17;;;9.82;;
21837;SDS011;11081;45.946;6.140;2023-02-15T13:44:52;21.70;;;9.60;;
21837;SDS011;11081;45.946;6.140;2023-02-15T13:47:32;26.50;;;9.60;;
21837;SDS011;11081;45.946;6.140;2023-02-15T13:50:10;18.25;;;9.45;;
21837;SDS011;11081;45.946;6.140;2023-02-15T13:52:52;21.80;;;9.95;;
21837;SDS011;11081;45.946;6.140;2023-02-15T13:55:28;19.02;;;9.02;;
21837;SDS011;11081;45.946;6.140;2023-02-15T13:58:26;17.33;;;8.63;;
21837;SDS011;11081;45.946;6.140;2023-02-15T14:01:08;20.77;;;9.40;;
21837;SDS011;11081;45.946;6.140;2023-02-15T14:03:51;19.40;;;8.60;;
21837;SDS011;11081;45.946;6.140;2023-02-15T14:06:45;18.85;;;8.38;;
21837;SDS011;11081;45.946;6.140;2023-02-15T14:09:24;18.30;;;9.35;;
21837;SDS011;11081;45.946;6.140;2023-02-15T14:12:12;17.20;;;8.60;;
21837;SDS011;11081;45.946;6.140;2023-02-15T14:15:03;14.38;;;7.53;;
21837;SDS011;11081;45.946;6.140;2023-02-15T14:17:40;14.05;;;8.23;;
21837;SDS011;11081;45.946;6.140;2023-02-15T14:20:19;20.52;;;8.43;;
21837;SDS011;11081;45.946;6.140;2023-02-15T14:22:54;21.23;;;9.13;;
21837;SDS011;11081;45.946;6.140;2023-02-15T14:25:33;19.77;;;10.00;;
21837;SDS011;11081;45.946;6.140;2023-02-15T14:28:08;20.00;;;10.13;;
21837;SDS011;11081;45.946;6.140;2023-02-15T14:30:40;21.10;;;9.95;;
21837;SDS011;11081;45.946;6.140;2023-02-15T14:33:19;20.25;;;9.85;;
21837;SDS011;11081;45.946;6.140;2023-02-15T14:36:00;23.60;;;10.82;;
21837;SDS011;11081;45.946;6.140;2023-02-15T14:38:36;22.73;;;9.85;;
21837;SDS011;11081;45.946;6.140;2023-02-15T14:41:20;19.63;;;10.15;;
21837;SDS011;11081;45.946;6.140;2023-02-15T14:43:56;21.52;;;10.05;;
21837;SDS011;11081;45.946;6.140;2023-02-15T14:46:30;20.52;;;8.95;;
21837;SDS011;11081;45.946;6.140;2023-02-15T14:49:05;21.70;;;8.93;;
21837;SDS011;11081;45.946;6.140;2023-02-15T14:57:23;21.23;;;9.27;;
21837;SDS011;11081;45.946;6.140;2023-02-15T15:00:02;18.98;;;9.73;;
21837;SDS011;11081;45.946;6.140;2023-02-15T15:02:46;21.42;;;10.10;;
21837;SDS011;11081;45.946;6.140;2023-02-15T15:05:18;20.90;;;9.48;;
21837;SDS011;11081;45.946;6.140;2023-02-15T15:07:49;20.25;;;9.98;;
21837;SDS011;11081;45.946;6.140;2023-02-15T15:10:39;19.38;;;9.07;;
21837;SDS011;11081;45.946;6.140;2023-02-15T15:16:45;25.08;;;10.07;;
21837;SDS011;11081;45.946;6.140;2023-02-15T15:22:34;19.30;;;9.07;;
21837;SDS011;11081;45.946;6.140;2023-02-15T15:25:03;22.52;;;9.85;;
21837;SDS011;11081;45.946;6.140;2023-02-15T15:27:40;23.15;;;9.95;;
21837;SDS011;11081;45.946;6.140;2023-02-15T15:43:16;20.27;;;8.98;;